sensor_id;sensor_type;location;lat;lon;timestamp;P1;durP1;ratioP1;P2;durP2;ratioP2
2944;SDS011;1482;51.398;7.128;2022-11-04T00:01:17;2.80;;;1.50;;
2944;SDS011;1482;51.398;7.128;2022-11-04T00:03:43;3.83;;;1.53;;
2944;SDS011;1482;51.398;7.128;2022-11-04T00:06:09;2.57;;;2.37;;
2944;SDS011;1482;51.398;7.128;2022-11-04T00:08:34;2.83;;;1.60;;
2944;SDS011;1482;51.398;7.128;2022-11-04T00:11:00;3.80;;;1.90;;
2944;SDS011;1482;51.398;7.128;2022-11-04T00:13:45;1.80;;;1.70;;
2944;SDS011;1482;51.398;7.128;2022-11-04T00:16:11;2.47;;;1.90;;
2944;SDS011;1482;51.398;7.128;2022-11-04T00:18:56;3.50;;;2.10;;
2944;SDS011;1482;51.398;7.128;2022-11-04T00:21:21;3.80;;;1.73;;
2944;SDS011;1482;51.398;7.128;2022-11-04T00:24:07;5.23;;;1.90;;
2944;SDS011;1482;51.398;7.128;2022-11-04T00:26:53;1.80;;;1.70;;
2944;SDS011;1482;51.398;7.128;2022-11-04T00:29:37;2.77;;;1.13;;
2944;SDS011;1482;51.398;7.128;2022-11-04T00:32:03;1.73;;;1.63;;
2944;SDS011;1482;51.398;7.128;2022-11-04T00:34:47;3.33;;;1.80;;
2944;SDS011;1482;51.398;7.128;2022-11-04T00:37:12;1.53;;;1.40;;
2944;SDS011;1482;51.398;7.128;2022-11-04T00:39:38;1.97;;;1.63;;
2944;SDS011;1482;51.398;7.128;2022-11-04T00:42:04;2.10;;;1.87;;
2944;SDS011;1482;51.398;7.128;2022-11-04T00:44:29;2.17;;;1.87;;
2944;SDS011;1482;51.398;7.128;2022-11-04T00:46:55;2.40;;;2.00;;
2944;SDS011;1482;51.398;7.128;2022-11-04T00:49:20;1.93;;;1.73;;
2944;SDS011;1482;51.398;7.128;2022-11-04T00:51:46;5.50;;;2.00;;
2944;SDS011;1482;51.398;7.128;2022-11-04T00:54:12;1.93;;;1.80;;
2944;SDS011;1482;51.398;7.128;2022-11-04T00:56:37;2.13;;;1.87;;
2944;SDS011;1482;51.398;7.128;2022-11-04T00:59:04;3.00;;;1.77;;
2944;SDS011;1482;51.398;7.128;2022-11-04T01:01:30;4.07;;;2.37;;
2944;SDS011;1482;51.398;7.128;2022-11-04T01:03:55;2.00;;;1.90;;
2944;SDS011;1482;51.398;7.128;2022-11-04T01:06:22;3.47;;;2.50;;
2944;SDS011;1482;51.398;7.128;2022-11-04T01:08:54;2.10;;;1.97;;
2944;SDS011;1482;51.398;7.128;2022-11-04T01:11:24;2.93;;;2.60;;
2944;SDS011;1482;51.398;7.128;2022-11-04T01:13:52;2.93;;;2.63;;
2944;SDS011;1482;51.398;7.128;2022-11-04T01:16:18;2.50;;;2.30;;
2944;SDS011;1482;51.398;7.128;2022-11-04T01:18:44;3.13;;;2.83;;
2944;SDS011;1482;51.398;7.128;2022-11-04T01:21:10;2.37;;;2.17;;
2944;SDS011;1482;51.398;7.128;2022-11-04T01:23:37;7.13;;;1.97;;
2944;SDS011;1482;51.398;7.128;2022-11-04T01:26:04;2.53;;;2.33;;
2944;SDS011;1482;51.398;7.128;2022-11-04T01:28:30;2.53;;;2.33;;
2944;SDS011;1482;51.398;7.128;2022-11-04T01:30:56;6.13;;;3.00;;
2944;SDS011;1482;51.398;7.128;2022-11-04T01:33:22;3.23;;;3.03;;
2944;SDS011;1482;51.398;7.128;2022-11-04T01:35:48;3.70;;;3.40;;
2944;SDS011;1482;51.398;7.128;2022-11-04T01:38:15;6.50;;;3.73;;
2944;SDS011;1482;51.398;7.128;2022-11-04T01:40:41;4.53;;;3.30;;
2944;SDS011;1482;51.398;7.128;2022-11-04T01:43:11;4.40;;;4.00;;
2944;SDS011;1482;51.398;7.128;2022-11-04T01:45:41;2.83;;;2.63;;
2944;SDS011;1482;51.398;7.128;2022-11-04T01:48:21;3.67;;;3.37;;
2944;SDS011;1482;51.398;7.128;2022-11-04T01:50:53;6.33;;;3.47;;
2944;SDS011;1482;51.398;7.128;2022-11-04T01:53:40;4.30;;;3.37;;
2944;SDS011;1482;51.398;7.128;2022-11-04T01:56:08;3.87;;;3.57;;
2944;SDS011;1482;51.398;7.128;2022-11-04T01:58:38;6.50;;;4.10;;
2944;SDS011;1482;51.398;7.128;2022-11-04T02:01:07;4.37;;;4.00;;
2944;SDS011;1482;51.398;7.128;2022-11-04T02:03:53;7.73;;;4.00;;
2944;SDS011;1482;51.398;7.128;2022-11-04T02:06:43;4.10;;;3.77;;
2944;SDS011;1482;51.398;7.128;2022-11-04T02:09:11;4.13;;;3.80;;
2944;SDS011;1482;51.398;7.128;2022-11-04T02:11:37;8.37;;;4.37;;
2944;SDS011;1482;51.398;7.128;2022-11-04T02:14:21;4.97;;;4.30;;
2944;SDS011;1482;51.398;7.128;2022-11-04T02:16:47;6.30;;;4.00;;
2944;SDS011;1482;51.398;7.128;2022-11-04T02:27:22;6.73;;;3.83;;
2944;SDS011;1482;51.398;7.128;2022-11-04T02:36:19;5.40;;;3.27;;
2944;SDS011;1482;51.398;7.128;2022-11-04T02:41:26;4.50;;;3.23;;
2944;SDS011;1482;51.398;7.128;2022-11-04T02:46:58;5.23;;;2.70;;
2944;SDS011;1482;51.398;7.128;2022-11-04T02:54:38;7.23;;;3.07;;
2944;SDS011;1482;51.398;7.128;2022-11-04T02:57:25;3.00;;;2.67;;
2944;SDS011;1482;51.398;7.128;2022-11-04T03:02:25;5.13;;;2.70;;
2944;SDS011;1482;51.398;7.128;2022-11-04T03:04:55;6.37;;;3.17;;
2944;SDS011;1482;51.398;7.128;2022-11-04T03:07:23;5.73;;;2.30;;
2944;SDS011;1482;51.398;7.128;2022-11-04T03:09:54;2.70;;;2.50;;
2944;SDS011;1482;51.398;7.128;2022-11-04T03:12:26;3.97;;;2.40;;
2944;SDS011;1482;51.398;7.128;2022-11-04T03:15:01;5.87;;;2.53;;
2944;SDS011;1482;51.398;7.128;2022-11-04T03:17:35;2.90;;;2.50;;
2944;SDS011;1482;51.398;7.128;2022-11-04T03:20:11;3.10;;;2.33;;
2944;SDS011;1482;51.398;7.128;2022-11-04T03:22:40;3.23;;;2.73;;
2944;SDS011;1482;51.398;7.128;2022-11-04T03:25:06;6.53;;;3.00;;
2944;SDS011;1482;51.398;7.128;2022-11-04T03:27:42;4.73;;;2.57;;
2944;SDS011;1482;51.398;7.128;2022-11-04T03:30:37;5.13;;;2.97;;
2944;SDS011;1482;51.398;7.128;2022-11-04T03:35:49;11.43;;;2.60;;
2944;SDS011;1482;51.398;7.128;2022-11-04T03:38:15;8.77;;;2.80;;
2944;SDS011;1482;51.398;7.128;2022-11-04T03:40:40;3.80;;;2.63;;
2944;SDS011;1482;51.398;7.128;2022-11-04T03:43:10;3.63;;;2.57;;
2944;SDS011;1482;51.398;7.128;2022-11-04T03:45:42;9.97;;;2.87;;
2944;SDS011;1482;51.398;7.128;2022-11-04T03:48:08;6.23;;;2.63;;
2944;SDS011;1482;51.398;7.128;2022-11-04T03:50:41;16.50;;;2.80;;
2944;SDS011;1482;51.398;7.128;2022-11-04T03:53:08;5.33;;;2.47;;
2944;SDS011;1482;51.398;7.128;2022-11-04T03:55:38;5.27;;;1.93;;
2944;SDS011;1482;51.398;7.128;2022-11-04T03:58:36;4.93;;;2.60;;
2944;SDS011;1482;51.398;7.128;2022-11-04T04:04:13;7.27;;;3.00;;
2944;SDS011;1482;51.398;7.128;2022-11-04T04:06:57;5.70;;;2.80;;
2944;SDS011;1482;51.398;7.128;2022-11-04T04:12:49;5.43;;;2.47;;
2944;SDS011;1482;51.398;7.128;2022-11-04T04:15:18;11.43;;;2.70;;
2944;SDS011;1482;51.398;7.128;2022-11-04T04:17:55;8.70;;;3.40;;
2944;SDS011;1482;51.398;7.128;2022-11-04T04:20:27;6.57;;;2.97;;
2944;SDS011;1482;51.398;7.128;2022-11-04T04:22:57;5.63;;;2.77;;
2944;SDS011;1482;51.398;7.128;2022-11-04T04:26:04;4.00;;;2.23;;
2944;SDS011;1482;51.398;7.128;2022-11-04T04:28:51;6.27;;;2.70;;
2944;SDS011;1482;51.398;7.128;2022-11-04T04:31:19;9.07;;;3.17;;
2944;SDS011;1482;51.398;7.128;2022-11-04T04:34:04;9.17;;;2.73;;
2944;SDS011;1482;51.398;7.128;2022-11-04T04:36:31;10.30;;;2.63;;
2944;SDS011;1482;51.398;7.128;2022-11-04T04:39:03;6.63;;;2.60;;
2944;SDS011;1482;51.398;7.128;2022-11-04T04:41:49;4.53;;;2.23;;
2944;SDS011;1482;51.398;7.128;2022-11-04T04:44:35;6.10;;;2.83;;
2944;SDS011;1482;51.398;7.128;2022-11-04T04:47:21;6.17;;;2.53;;
2944;SDS011;1482;51.398;7.128;2022-11-04T04:49:49;7.43;;;2.10;;
2944;SDS011;1482;51.398;7.128;2022-11-04T04:52:15;7.53;;;2.30;;
2944;SDS011;1482;51.398;7.128;2022-11-04T04:54:40;4.57;;;2.43;;
2944;SDS011;1482;51.398;7.128;2022-11-04T04:57:06;9.30;;;3.00;;
2944;SDS011;1482;51.398;7.128;2022-11-04T04:59:31;11.50;;;3.20;;
2944;SDS011;1482;51.398;7.128;2022-11-04T05:01:57;13.80;;;3.10;;
2944;SDS011;1482;51.398;7.128;2022-11-04T05:04:22;10.03;;;2.23;;
2944;SDS011;1482;51.398;7.128;2022-11-04T05:06:48;7.07;;;2.10;;
2944;SDS011;1482;51.398;7.128;2022-11-04T05:09:13;7.33;;;2.70;;
2944;SDS011;1482;51.398;7.128;2022-11-04T05:11:39;5.40;;;1.90;;
2944;SDS011;1482;51.398;7.128;2022-11-04T05:14:04;5.73;;;1.90;;
2944;SDS011;1482;51.398;7.128;2022-11-04T05:16:30;3.30;;;1.60;;
2944;SDS011;1482;51.398;7.128;2022-11-04T05:18:55;6.00;;;2.30;;
2944;SDS011;1482;51.398;7.128;2022-11-04T05:21:21;14.70;;;2.10;;
2944;SDS011;1482;51.398;7.128;2022-11-04T05:23:46;8.13;;;1.50;;
2944;SDS011;1482;51.398;7.128;2022-11-04T05:26:12;7.80;;;2.10;;
2944;SDS011;1482;51.398;7.128;2022-11-04T05:28:39;6.30;;;2.20;;
2944;SDS011;1482;51.398;7.128;2022-11-04T05:31:05;5.47;;;1.87;;
2944;SDS011;1482;51.398;7.128;2022-11-04T05:33:30;5.77;;;1.77;;
2944;SDS011;1482;51.398;7.128;2022-11-04T05:38:32;14.43;;;3.03;;
2944;SDS011;1482;51.398;7.128;2022-11-04T05:40:58;8.50;;;1.87;;
2944;SDS011;1482;51.398;7.128;2022-11-04T05:43:23;6.80;;;2.33;;
2944;SDS011;1482;51.398;7.128;2022-11-04T05:45:49;4.33;;;1.83;;
2944;SDS011;1482;51.398;7.128;2022-11-04T05:48:14;6.97;;;2.00;;
2944;SDS011;1482;51.398;7.128;2022-11-04T05:50:40;4.80;;;2.60;;
2944;SDS011;1482;51.398;7.128;2022-11-04T05:53:06;5.70;;;2.17;;
2944;SDS011;1482;51.398;7.128;2022-11-04T05:55:32;7.97;;;1.90;;
2944;SDS011;1482;51.398;7.128;2022-11-04T05:57:57;5.30;;;2.37;;
2944;SDS011;1482;51.398;7.128;2022-11-04T06:00:23;5.73;;;2.00;;
2944;SDS011;1482;51.398;7.128;2022-11-04T06:02:50;3.77;;;2.13;;
2944;SDS011;1482;51.398;7.128;2022-11-04T06:05:15;2.90;;;1.40;;
2944;SDS011;1482;51.398;7.128;2022-11-04T06:07:41;12.60;;;2.90;;
2944;SDS011;1482;51.398;7.128;2022-11-04T06:10:07;5.53;;;2.50;;
2944;SDS011;1482;51.398;7.128;2022-11-04T06:12:32;7.63;;;1.93;;
2944;SDS011;1482;51.398;7.128;2022-11-04T06:14:58;5.93;;;2.10;;
2944;SDS011;1482;51.398;7.128;2022-11-04T06:17:23;4.67;;;2.13;;
2944;SDS011;1482;51.398;7.128;2022-11-04T06:19:49;2.03;;;1.50;;
2944;SDS011;1482;51.398;7.128;2022-11-04T06:22:15;2.27;;;1.30;;
2944;SDS011;1482;51.398;7.128;2022-11-04T06:24:43;5.23;;;1.47;;
2944;SDS011;1482;51.398;7.128;2022-11-04T06:27:09;6.60;;;2.20;;
2944;SDS011;1482;51.398;7.128;2022-11-04T06:29:35;13.10;;;2.47;;
2944;SDS011;1482;51.398;7.128;2022-11-04T06:32:08;10.13;;;2.37;;
2944;SDS011;1482;51.398;7.128;2022-11-04T06:34:39;6.73;;;2.20;;
2944;SDS011;1482;51.398;7.128;2022-11-04T06:37:04;5.50;;;2.07;;
2944;SDS011;1482;51.398;7.128;2022-11-04T06:39:31;5.27;;;2.10;;
2944;SDS011;1482;51.398;7.128;2022-11-04T06:41:56;3.87;;;1.70;;
2944;SDS011;1482;51.398;7.128;2022-11-04T06:44:22;3.00;;;1.60;;
2944;SDS011;1482;51.398;7.128;2022-11-04T06:46:48;3.93;;;2.00;;
2944;SDS011;1482;51.398;7.128;2022-11-04T06:49:14;11.23;;;2.40;;
2944;SDS011;1482;51.398;7.128;2022-11-04T06:51:43;2.00;;;1.73;;
2944;SDS011;1482;51.398;7.128;2022-11-04T06:54:09;4.53;;;2.83;;
2944;SDS011;1482;51.398;7.128;2022-11-04T06:56:35;5.20;;;2.57;;
2944;SDS011;1482;51.398;7.128;2022-11-04T06:59:01;7.50;;;2.30;;
2944;SDS011;1482;51.398;7.128;2022-11-04T07:01:27;3.97;;;2.10;;
2944;SDS011;1482;51.398;7.128;2022-11-04T07:03:55;4.10;;;2.20;;
2944;SDS011;1482;51.398;7.128;2022-11-04T07:06:23;3.97;;;2.03;;
2944;SDS011;1482;51.398;7.128;2022-11-04T07:08:50;6.67;;;2.40;;
2944;SDS011;1482;51.398;7.128;2022-11-04T07:11:17;6.77;;;2.40;;
2944;SDS011;1482;51.398;7.128;2022-11-04T07:13:45;6.33;;;2.13;;
2944;SDS011;1482;51.398;7.128;2022-11-04T07:16:11;14.33;;;3.63;;
2944;SDS011;1482;51.398;7.128;2022-11-04T07:18:37;7.40;;;2.40;;
2944;SDS011;1482;51.398;7.128;2022-11-04T07:21:03;9.63;;;2.97;;
2944;SDS011;1482;51.398;7.128;2022-11-04T07:23:29;9.73;;;2.83;;
2944;SDS011;1482;51.398;7.128;2022-11-04T07:25:58;6.10;;;2.40;;
2944;SDS011;1482;51.398;7.128;2022-11-04T07:28:24;8.73;;;2.47;;
2944;SDS011;1482;51.398;7.128;2022-11-04T07:30:50;10.60;;;2.57;;
2944;SDS011;1482;51.398;7.128;2022-11-04T07:33:15;4.40;;;2.67;;
2944;SDS011;1482;51.398;7.128;2022-11-04T07:35:42;6.20;;;2.30;;
2944;SDS011;1482;51.398;7.128;2022-11-04T07:38:09;11.27;;;3.67;;
2944;SDS011;1482;51.398;7.128;2022-11-04T07:40:35;5.40;;;2.47;;
2944;SDS011;1482;51.398;7.128;2022-11-04T07:43:00;3.40;;;1.70;;
2944;SDS011;1482;51.398;7.128;2022-11-04T07:45:26;11.53;;;2.73;;
2944;SDS011;1482;51.398;7.128;2022-11-04T07:47:51;4.27;;;2.47;;
2944;SDS011;1482;51.398;7.128;2022-11-04T07:50:17;9.13;;;2.33;;
2944;SDS011;1482;51.398;7.128;2022-11-04T07:52:42;5.57;;;2.70;;
2944;SDS011;1482;51.398;7.128;2022-11-04T07:55:09;6.17;;;2.83;;
2944;SDS011;1482;51.398;7.128;2022-11-04T07:57:37;6.30;;;2.03;;
2944;SDS011;1482;51.398;7.128;2022-11-04T08:00:03;7.03;;;2.47;;
2944;SDS011;1482;51.398;7.128;2022-11-04T08:02:30;7.00;;;3.00;;
2944;SDS011;1482;51.398;7.128;2022-11-04T08:04:56;6.30;;;2.20;;
2944;SDS011;1482;51.398;7.128;2022-11-04T08:07:21;13.27;;;4.50;;
2944;SDS011;1482;51.398;7.128;2022-11-04T08:09:47;7.90;;;2.93;;
2944;SDS011;1482;51.398;7.128;2022-11-04T08:12:12;5.67;;;2.20;;
2944;SDS011;1482;51.398;7.128;2022-11-04T08:14:38;8.40;;;3.27;;
2944;SDS011;1482;51.398;7.128;2022-11-04T08:17:03;7.03;;;3.13;;
2944;SDS011;1482;51.398;7.128;2022-11-04T08:19:29;5.60;;;2.30;;
2944;SDS011;1482;51.398;7.128;2022-11-04T08:21:55;4.13;;;1.90;;
2944;SDS011;1482;51.398;7.128;2022-11-04T08:24:20;3.33;;;2.13;;
2944;SDS011;1482;51.398;7.128;2022-11-04T08:26:46;4.27;;;2.60;;
2944;SDS011;1482;51.398;7.128;2022-11-04T08:29:11;4.60;;;3.13;;
2944;SDS011;1482;51.398;7.128;2022-11-04T08:31:37;4.57;;;2.10;;
2944;SDS011;1482;51.398;7.128;2022-11-04T08:34:03;2.63;;;2.30;;
2944;SDS011;1482;51.398;7.128;2022-11-04T08:36:34;6.97;;;2.47;;
2944;SDS011;1482;51.398;7.128;2022-11-04T08:39:01;7.23;;;2.63;;
2944;SDS011;1482;51.398;7.128;2022-11-04T08:41:29;15.90;;;2.30;;
2944;SDS011;1482;51.398;7.128;2022-11-04T08:43:56;3.90;;;3.07;;
2944;SDS011;1482;51.398;7.128;2022-11-04T08:46:24;4.10;;;2.50;;
2944;SDS011;1482;51.398;7.128;2022-11-04T08:48:51;6.90;;;2.40;;
2944;SDS011;1482;51.398;7.128;2022-11-04T08:51:18;4.53;;;2.27;;
2944;SDS011;1482;51.398;7.128;2022-11-04T08:53:46;2.23;;;1.93;;
2944;SDS011;1482;51.398;7.128;2022-11-04T08:56:13;8.20;;;2.40;;
2944;SDS011;1482;51.398;7.128;2022-11-04T08:58:41;8.60;;;3.00;;
2944;SDS011;1482;51.398;7.128;2022-11-04T09:01:07;5.50;;;2.27;;
2944;SDS011;1482;51.398;7.128;2022-11-04T09:03:35;5.27;;;2.20;;
2944;SDS011;1482;51.398;7.128;2022-11-04T09:06:02;5.77;;;1.97;;
2944;SDS011;1482;51.398;7.128;2022-11-04T09:08:28;8.57;;;2.23;;
2944;SDS011;1482;51.398;7.128;2022-11-04T09:10:54;8.10;;;2.83;;
2944;SDS011;1482;51.398;7.128;2022-11-04T09:13:19;8.27;;;3.63;;
2944;SDS011;1482;51.398;7.128;2022-11-04T09:15:45;6.47;;;3.03;;
2944;SDS011;1482;51.398;7.128;2022-11-04T09:18:12;10.70;;;3.90;;
2944;SDS011;1482;51.398;7.128;2022-11-04T09:20:38;8.57;;;3.97;;
2944;SDS011;1482;51.398;7.128;2022-11-04T09:23:06;13.10;;;3.23;;
2944;SDS011;1482;51.398;7.128;2022-11-04T09:25:31;10.70;;;4.20;;
2944;SDS011;1482;51.398;7.128;2022-11-04T09:27:57;5.87;;;2.60;;
2944;SDS011;1482;51.398;7.128;2022-11-04T09:30:23;7.20;;;3.10;;
2944;SDS011;1482;51.398;7.128;2022-11-04T09:32:49;6.27;;;3.07;;
2944;SDS011;1482;51.398;7.128;2022-11-04T09:35:14;7.60;;;2.50;;
2944;SDS011;1482;51.398;7.128;2022-11-04T09:37:41;11.70;;;3.93;;
2944;SDS011;1482;51.398;7.128;2022-11-04T09:40:10;11.80;;;2.30;;
2944;SDS011;1482;51.398;7.128;2022-11-04T09:45:32;7.27;;;1.77;;
2944;SDS011;1482;51.398;7.128;2022-11-04T09:47:59;6.50;;;1.90;;
2944;SDS011;1482;51.398;7.128;2022-11-04T09:50:30;7.70;;;2.10;;
2944;SDS011;1482;51.398;7.128;2022-11-04T09:53:04;6.43;;;1.87;;
2944;SDS011;1482;51.398;7.128;2022-11-04T09:55:48;5.20;;;1.60;;
2944;SDS011;1482;51.398;7.128;2022-11-04T09:58:18;7.93;;;1.90;;
2944;SDS011;1482;51.398;7.128;2022-11-04T10:00:45;6.20;;;2.17;;
2944;SDS011;1482;51.398;7.128;2022-11-04T10:20:39;7.10;;;2.27;;
2944;SDS011;1482;51.398;7.128;2022-11-04T10:25:21;5.70;;;1.80;;
2944;SDS011;1482;51.398;7.128;2022-11-04T10:27:52;8.43;;;2.27;;
2944;SDS011;1482;51.398;7.128;2022-11-04T10:30:18;6.73;;;2.20;;
2944;SDS011;1482;51.398;7.128;2022-11-04T10:35:41;5.53;;;1.50;;
2944;SDS011;1482;51.398;7.128;2022-11-04T10:38:20;5.60;;;1.60;;
2944;SDS011;1482;51.398;7.128;2022-11-04T10:40:52;7.30;;;2.03;;
2944;SDS011;1482;51.398;7.128;2022-11-04T10:43:25;15.10;;;2.77;;
2944;SDS011;1482;51.398;7.128;2022-11-04T10:48:48;9.30;;;2.30;;
2944;SDS011;1482;51.398;7.128;2022-11-04T10:51:18;7.97;;;1.67;;
2944;SDS011;1482;51.398;7.128;2022-11-04T10:53:46;7.03;;;1.97;;
2944;SDS011;1482;51.398;7.128;2022-11-04T10:56:23;6.20;;;1.70;;
2944;SDS011;1482;51.398;7.128;2022-11-04T10:58:56;10.03;;;2.87;;
2944;SDS011;1482;51.398;7.128;2022-11-04T11:01:32;10.10;;;2.03;;
2944;SDS011;1482;51.398;7.128;2022-11-04T11:03:59;11.33;;;2.33;;
2944;SDS011;1482;51.398;7.128;2022-11-04T11:06:30;9.17;;;2.60;;
2944;SDS011;1482;51.398;7.128;2022-11-04T11:11:50;6.73;;;2.07;;
2944;SDS011;1482;51.398;7.128;2022-11-04T11:14:18;9.20;;;1.90;;
2944;SDS011;1482;51.398;7.128;2022-11-04T11:16:43;9.07;;;2.93;;
2944;SDS011;1482;51.398;7.128;2022-11-04T11:19:16;7.57;;;2.00;;
2944;SDS011;1482;51.398;7.128;2022-11-04T11:21:50;8.00;;;2.10;;
2944;SDS011;1482;51.398;7.128;2022-11-04T11:24:24;12.47;;;2.50;;
2944;SDS011;1482;51.398;7.128;2022-11-04T11:26:52;7.33;;;2.27;;
2944;SDS011;1482;51.398;7.128;2022-11-04T11:29:21;8.47;;;2.50;;
2944;SDS011;1482;51.398;7.128;2022-11-04T11:31:47;14.00;;;2.80;;
2944;SDS011;1482;51.398;7.128;2022-11-04T11:36:51;12.40;;;2.27;;
2944;SDS011;1482;51.398;7.128;2022-11-04T11:39:27;9.50;;;2.70;;
2944;SDS011;1482;51.398;7.128;2022-11-04T11:42:00;11.57;;;3.20;;
2944;SDS011;1482;51.398;7.128;2022-11-04T11:44:37;5.83;;;1.73;;
2944;SDS011;1482;51.398;7.128;2022-11-04T11:52:34;6.47;;;1.90;;
2944;SDS011;1482;51.398;7.128;2022-11-04T11:55:05;11.60;;;2.00;;
2944;SDS011;1482;51.398;7.128;2022-11-04T12:00:22;15.27;;;3.60;;
2944;SDS011;1482;51.398;7.128;2022-11-04T12:03:00;9.90;;;2.13;;
2944;SDS011;1482;51.398;7.128;2022-11-04T12:06:02;9.77;;;2.63;;
2944;SDS011;1482;51.398;7.128;2022-11-04T12:11:13;15.47;;;1.97;;
2944;SDS011;1482;51.398;7.128;2022-11-04T12:13:57;12.93;;;2.67;;
2944;SDS011;1482;51.398;7.128;2022-11-04T12:16:48;8.87;;;2.10;;
2944;SDS011;1482;51.398;7.128;2022-11-04T12:27:15;9.07;;;2.30;;
2944;SDS011;1482;51.398;7.128;2022-11-04T12:30:03;9.67;;;2.40;;
2944;SDS011;1482;51.398;7.128;2022-11-04T12:32:40;6.20;;;2.33;;
2944;SDS011;1482;51.398;7.128;2022-11-04T12:40:52;6.67;;;1.80;;
2944;SDS011;1482;51.398;7.128;2022-11-04T12:46:17;9.57;;;2.07;;
2944;SDS011;1482;51.398;7.128;2022-11-04T12:57:10;6.00;;;2.03;;
2944;SDS011;1482;51.398;7.128;2022-11-04T12:59:45;7.00;;;1.83;;
2944;SDS011;1482;51.398;7.128;2022-11-04T13:02:27;5.17;;;1.60;;
2944;SDS011;1482;51.398;7.128;2022-11-04T13:08:17;10.73;;;2.43;;
2944;SDS011;1482;51.398;7.128;2022-11-04T13:10:54;11.80;;;2.40;;
2944;SDS011;1482;51.398;7.128;2022-11-04T13:13:26;10.30;;;2.30;;
2944;SDS011;1482;51.398;7.128;2022-11-04T13:15:57;7.33;;;2.40;;
2944;SDS011;1482;51.398;7.128;2022-11-04T13:18:29;7.00;;;2.20;;
2944;SDS011;1482;51.398;7.128;2022-11-04T13:26:28;8.50;;;2.00;;
2944;SDS011;1482;51.398;7.128;2022-11-04T13:28:58;8.83;;;2.40;;
2944;SDS011;1482;51.398;7.128;2022-11-04T13:34:47;7.87;;;2.10;;
2944;SDS011;1482;51.398;7.128;2022-11-04T13:40:04;10.30;;;2.50;;
2944;SDS011;1482;51.398;7.128;2022-11-04T13:45:57;7.40;;;2.30;;
2944;SDS011;1482;51.398;7.128;2022-11-04T13:48:27;6.17;;;2.57;;
2944;SDS011;1482;51.398;7.128;2022-11-04T13:51:08;12.97;;;3.03;;
2944;SDS011;1482;51.398;7.128;2022-11-04T13:53:52;8.00;;;2.90;;
2944;SDS011;1482;51.398;7.128;2022-11-04T13:56:37;13.63;;;3.00;;
2944;SDS011;1482;51.398;7.128;2022-11-04T14:04:36;8.33;;;2.47;;
2944;SDS011;1482;51.398;7.128;2022-11-04T14:07:04;5.93;;;2.03;;
2944;SDS011;1482;51.398;7.128;2022-11-04T14:14:54;8.70;;;2.70;;
2944;SDS011;1482;51.398;7.128;2022-11-04T14:19:57;10.50;;;4.00;;
2944;SDS011;1482;51.398;7.128;2022-11-04T14:22:29;9.17;;;3.13;;
2944;SDS011;1482;51.398;7.128;2022-11-04T14:24:59;9.73;;;3.30;;
2944;SDS011;1482;51.398;7.128;2022-11-04T14:27:46;7.67;;;3.00;;
2944;SDS011;1482;51.398;7.128;2022-11-04T14:33:31;12.80;;;3.13;;
2944;SDS011;1482;51.398;7.128;2022-11-04T14:38:41;10.13;;;3.50;;
2944;SDS011;1482;51.398;7.128;2022-11-04T14:41:12;13.43;;;4.83;;
2944;SDS011;1482;51.398;7.128;2022-11-04T14:43:44;12.23;;;5.90;;
2944;SDS011;1482;51.398;7.128;2022-11-04T14:46:12;12.20;;;5.50;;
2944;SDS011;1482;51.398;7.128;2022-11-04T14:48:47;12.00;;;6.10;;
2944;SDS011;1482;51.398;7.128;2022-11-04T14:51:26;16.80;;;7.13;;
2944;SDS011;1482;51.398;7.128;2022-11-04T14:54:11;12.53;;;6.70;;
2944;SDS011;1482;51.398;7.128;2022-11-04T14:56:44;17.70;;;8.00;;
2944;SDS011;1482;51.398;7.128;2022-11-04T14:59:18;14.10;;;7.27;;
2944;SDS011;1482;51.398;7.128;2022-11-04T15:01:46;14.03;;;7.20;;
2944;SDS011;1482;51.398;7.128;2022-11-04T15:04:17;17.50;;;9.13;;
2944;SDS011;1482;51.398;7.128;2022-11-04T15:06:54;24.97;;;8.40;;
2944;SDS011;1482;51.398;7.128;2022-11-04T15:09:28;24.40;;;7.80;;
2944;SDS011;1482;51.398;7.128;2022-11-04T15:12:08;22.70;;;8.13;;
2944;SDS011;1482;51.398;7.128;2022-11-04T15:14:55;17.77;;;7.30;;
2944;SDS011;1482;51.398;7.128;2022-11-04T15:17:23;17.00;;;8.60;;
2944;SDS011;1482;51.398;7.128;2022-11-04T15:19:53;25.57;;;10.57;;
2944;SDS011;1482;51.398;7.128;2022-11-04T15:22:21;24.33;;;10.13;;
2944;SDS011;1482;51.398;7.128;2022-11-04T15:24:48;20.60;;;8.60;;
2944;SDS011;1482;51.398;7.128;2022-11-04T15:27:18;23.23;;;10.50;;
2944;SDS011;1482;51.398;7.128;2022-11-04T15:29:55;20.93;;;10.50;;
2944;SDS011;1482;51.398;7.128;2022-11-04T15:32:23;25.73;;;12.20;;
2944;SDS011;1482;51.398;7.128;2022-11-04T15:34:50;25.03;;;10.70;;
2944;SDS011;1482;51.398;7.128;2022-11-04T15:37:16;20.10;;;9.53;;
2944;SDS011;1482;51.398;7.128;2022-11-04T15:39:44;18.17;;;9.87;;
2944;SDS011;1482;51.398;7.128;2022-11-04T15:42:44;17.73;;;9.67;;
2944;SDS011;1482;51.398;7.128;2022-11-04T15:50:56;19.20;;;6.63;;
2944;SDS011;1482;51.398;7.128;2022-11-04T15:53:27;18.30;;;7.40;;
2944;SDS011;1482;51.398;7.128;2022-11-04T15:55:53;17.30;;;6.60;;
2944;SDS011;1482;51.398;7.128;2022-11-04T15:58:19;23.80;;;8.80;;
2944;SDS011;1482;51.398;7.128;2022-11-04T16:00:54;21.20;;;8.57;;
2944;SDS011;1482;51.398;7.128;2022-11-04T16:03:20;20.27;;;6.63;;
2944;SDS011;1482;51.398;7.128;2022-11-04T16:06:06;14.70;;;6.20;;
2944;SDS011;1482;51.398;7.128;2022-11-04T16:08:33;24.37;;;6.67;;
2944;SDS011;1482;51.398;7.128;2022-11-04T16:13:36;18.40;;;6.70;;
2944;SDS011;1482;51.398;7.128;2022-11-04T16:18:41;11.47;;;5.17;;
2944;SDS011;1482;51.398;7.128;2022-11-04T16:24:02;14.13;;;6.20;;
2944;SDS011;1482;51.398;7.128;2022-11-04T16:26:39;14.27;;;7.87;;
2944;SDS011;1482;51.398;7.128;2022-11-04T16:29:17;25.93;;;9.30;;
2944;SDS011;1482;51.398;7.128;2022-11-04T16:31:45;20.57;;;8.00;;
2944;SDS011;1482;51.398;7.128;2022-11-04T16:34:30;22.83;;;7.50;;
2944;SDS011;1482;51.398;7.128;2022-11-04T16:36:59;25.43;;;8.57;;
2944;SDS011;1482;51.398;7.128;2022-11-04T16:39:25;15.73;;;7.07;;
2944;SDS011;1482;51.398;7.128;2022-11-04T16:41:50;18.53;;;8.77;;
2944;SDS011;1482;51.398;7.128;2022-11-04T16:44:19;18.53;;;9.80;;
2944;SDS011;1482;51.398;7.128;2022-11-04T16:46:46;21.10;;;12.30;;
2944;SDS011;1482;51.398;7.128;2022-11-04T16:49:16;22.23;;;11.17;;
2944;SDS011;1482;51.398;7.128;2022-11-04T16:51:44;19.83;;;9.77;;
2944;SDS011;1482;51.398;7.128;2022-11-04T16:54:11;26.80;;;11.50;;
2944;SDS011;1482;51.398;7.128;2022-11-04T16:56:37;23.17;;;11.40;;
2944;SDS011;1482;51.398;7.128;2022-11-04T16:59:03;31.40;;;20.47;;
2944;SDS011;1482;51.398;7.128;2022-11-04T17:01:29;27.97;;;14.50;;
2944;SDS011;1482;51.398;7.128;2022-11-04T17:03:55;25.90;;;15.50;;
2944;SDS011;1482;51.398;7.128;2022-11-04T17:06:21;34.13;;;17.27;;
2944;SDS011;1482;51.398;7.128;2022-11-04T17:08:46;29.73;;;14.43;;
2944;SDS011;1482;51.398;7.128;2022-11-04T17:11:12;33.57;;;15.67;;
2944;SDS011;1482;51.398;7.128;2022-11-04T17:13:38;29.50;;;15.77;;
2944;SDS011;1482;51.398;7.128;2022-11-04T17:16:05;26.43;;;14.87;;
2944;SDS011;1482;51.398;7.128;2022-11-04T17:18:32;23.20;;;13.17;;
2944;SDS011;1482;51.398;7.128;2022-11-04T17:20:58;25.87;;;13.33;;
2944;SDS011;1482;51.398;7.128;2022-11-04T17:23:29;31.50;;;16.53;;
2944;SDS011;1482;51.398;7.128;2022-11-04T17:25:54;22.63;;;12.03;;
2944;SDS011;1482;51.398;7.128;2022-11-04T17:28:20;31.07;;;14.23;;
2944;SDS011;1482;51.398;7.128;2022-11-04T17:30:45;19.90;;;11.30;;
2944;SDS011;1482;51.398;7.128;2022-11-04T17:33:12;23.77;;;12.67;;
2944;SDS011;1482;51.398;7.128;2022-11-04T17:35:39;28.67;;;14.80;;
2944;SDS011;1482;51.398;7.128;2022-11-04T17:38:06;26.30;;;13.53;;
2944;SDS011;1482;51.398;7.128;2022-11-04T17:40:31;29.80;;;15.23;;
2944;SDS011;1482;51.398;7.128;2022-11-04T17:42:57;23.77;;;13.53;;
2944;SDS011;1482;51.398;7.128;2022-11-04T17:45:41;15.13;;;10.53;;
2944;SDS011;1482;51.398;7.128;2022-11-04T17:48:07;19.83;;;11.30;;
2944;SDS011;1482;51.398;7.128;2022-11-04T17:50:35;25.93;;;12.20;;
2944;SDS011;1482;51.398;7.128;2022-11-04T17:53:02;18.77;;;13.20;;
2944;SDS011;1482;51.398;7.128;2022-11-04T17:55:27;26.27;;;13.63;;
2944;SDS011;1482;51.398;7.128;2022-11-04T17:57:53;22.97;;;16.23;;
2944;SDS011;1482;51.398;7.128;2022-11-04T18:00:19;22.80;;;18.23;;
2944;SDS011;1482;51.398;7.128;2022-11-04T18:02:48;28.53;;;15.40;;
2944;SDS011;1482;51.398;7.128;2022-11-04T18:05:13;61.03;;;40.17;;
2944;SDS011;1482;51.398;7.128;2022-11-04T18:07:39;26.73;;;18.30;;